M/V Elma — 9HA3522 — position and weather

sailwx.info

Track history (hours):
 
Tides and Currents Weather Stations Pressure Air Temp Water Temp Dewpoint Dewpoint Depression Visibility Wind Speed Wind Dir Waves Ship Positions

M/V Elma

Last reported at 2017-Dec-04 09:44 UTC. Time now 2017-Dec-12 15:56 UTC.
Position N 46°56' W 007°22'.
Warning: this ship's position is 8 days out of date.

Length 168 m; draft 9 m.

Type: Cargo ship. MMSI: 229691000.

Date/timePositionNaut miles runAvg speedWind from/ knotsBaromVisibWave heightAir tempDewpointWater temp
2017-Dec-04 09:44N 46°56' W 007°22'511.8
2017-Dec-04 09:20N 47°00' W 007°19'711.6
2017-Dec-04 08:42N 47°07' W 007°14'711.6
2017-Dec-04 08:07N 47°13' W 007°09'1611.6
2017-Dec-04 06:43N 47°27' W 006°58'611.9
2017-Dec-04 06:14N 47°32' W 006°54'312.2
2017-Dec-04 06:00N 47°35' W 006°52'912.1
2017-Dec-04 05:16N 47°43' W 006°45'1411.3
2017-Dec-04 04:01N 47°55' W 006°35'110.6
2017-Dec-04 03:53N 47°56' W 006°34'510.6
2017-Dec-04 03:27N 48°00' W 006°31'510.3
2017-Dec-04 03:00N 48°05' W 006°28'510.1
2017-Dec-04 02:30N 48°09' W 006°25'5 9.9
2017-Dec-04 01:57N 48°14' W 006°21'7611.6
2017-Dec-03 19:24N 49°13' W 005°08'6210.7
2017-Dec-03 13:37N 49°48' W 003°50'112.3
2017-Dec-03 13:30N 49°48' W 003°48'612.5
2017-Dec-03 13:00N 49°52' W 003°40'712.8
2017-Dec-03 12:30N 49°56' W 003°32'613.1
2017-Dec-03 12:01N 49°59' W 003°23'713.1
2017-Dec-03 11:30N 50°03' W 003°15'612.6
2017-Dec-03 11:00N 50°07' W 003°07'612.1
2017-Dec-03 10:31N 50°10' W 002°59'611.6
2017-Dec-03 10:00N 50°14' W 002°52'611.1
2017-Dec-03 09:30N 50°17' W 002°45'510.4
2017-Dec-03 09:00N 50°19' W 002°38'5 9.7
2017-Dec-03 08:30N 50°22' W 002°31'4 9.0
2017-Dec-03 08:00N 50°24' W 002°25'4 8.1
2017-Dec-03 07:28N 50°27' W 002°20'4 8.0
2017-Dec-03 06:59N 50°29' W 002°15'3 6.1
2017-Dec-03 06:28N 50°32' W 002°16'510.7
2017-Dec-03 06:01N 50°35' W 002°22'2 2.3
2017-Dec-03 05:19N 50°36' W 002°24'0 0.0
2017-Dec-03 04:55N 50°36' W 002°24'0 0.1
2017-Dec-03 04:25N 50°36' W 002°24'0 0.2
2017-Dec-03 03:49N 50°35' W 002°24'0 0.1
2017-Dec-03 03:28N 50°35' W 002°24'0 0.1
2017-Dec-03 02:58N 50°35' W 002°24'0 0.0
2017-Dec-03 02:28N 50°35' W 002°24'0 0.0
2017-Dec-03 01:58N 50°35' W 002°24'0 0.0
2017-Dec-03 01:19N 50°35' W 002°24'0 0.0
2017-Dec-03 00:55N 50°35' W 002°24'0 0.0
2017-Dec-03 00:28N 50°35' W 002°24'0 0.0
2017-Dec-02 23:55N 50°35' W 002°24'0 0.0
2017-Dec-02 23:25N 50°35' W 002°24'0 0.0
2017-Dec-02 22:58N 50°35' W 002°24'0 0.0
2017-Dec-02 22:25N 50°35' W 002°24'0 0.0
2017-Dec-02 22:00N 50°35' W 002°24'0 0.0
2017-Dec-02 21:30N 50°35' W 002°24'1 2.4
2017-Dec-02 20:59N 50°35' W 002°23'1 2.2
2017-Dec-02 20:31N 50°34' W 002°21'1 2.1
2017-Dec-02 20:01N 50°34' W 002°20'3 5.8
2017-Dec-02 19:30N 50°32' W 002°16'5 9.0
2017-Dec-02 18:59N 50°29' W 002°10'4 8.4
2017-Dec-02 18:30N 50°27' W 002°05'4 8.5
2017-Dec-02 18:00N 50°24' W 001°59'5 8.6
2017-Dec-02 17:28N 50°22' W 001°54'4 9.0
2017-Dec-02 17:01N 50°19' W 001°48'5 9.6
2017-Dec-02 16:31N 50°15' W 001°44'510.4
2017-Dec-02 16:00N 50°12' W 001°38'611.2
2017-Dec-02 15:30N 50°08' W 001°32'611.7
2017-Dec-02 15:01N 50°04' W 001°25'612.4
2017-Dec-02 14:30N 49°60' W 001°18'613.0
2017-Dec-02 14:01N 49°55' W 001°11'713.6
2017-Dec-02 13:30N 49°51' W 001°02'713.5
2017-Dec-02 13:00N 49°47' W 000°54'713.3
2017-Dec-02 12:30N 49°42' W 000°47'612.9
2017-Dec-02 12:00N 49°38' W 000°40'612.5
2017-Dec-02 11:30N 49°34' W 000°32'612.1
2017-Dec-02 11:00N 49°30' W 000°25'611.8
2017-Dec-02 10:30N 49°27' W 000°18'510.2
2017-Dec-02 10:00N 49°22' W 000°14'4 7.7
2017-Dec-02 09:30N 49°18' W 000°15'1 2.9
2017-Dec-02 09:00N 49°17' W 000°15'1 1.0
2017-Dec-02 08:30N 49°16' W 000°15'2 3.6
2017-Dec-02 08:00N 49°15' W 000°16'1 2.7
2017-Dec-02 07:28N 49°14' W 000°18'0 0.0
2017-Dec-02 06:58N 49°14' W 000°18'0 0.0
2017-Dec-02 06:28N 49°14' W 000°18'0 0.0
2017-Dec-02 05:58N 49°14' W 000°18'0 0.0
2017-Dec-02 05:28N 49°14' W 000°18'0 0.0
2017-Dec-02 04:58N 49°14' W 000°18'0 0.0
2017-Dec-02 04:28N 49°14' W 000°18'0 0.0
2017-Dec-02 03:58N 49°14' W 000°18'0 0.0
2017-Dec-02 03:28N 49°14' W 000°18'0 0.0
2017-Dec-02 02:58N 49°14' W 000°18'0 0.0
2017-Dec-02 02:28N 49°14' W 000°18'0 0.0
2017-Dec-02 01:58N 49°14' W 000°18'0 0.0
2017-Dec-02 01:28N 49°14' W 000°18'0 0.0
2017-Dec-02 00:58N 49°14' W 000°18'0 0.0
2017-Dec-02 00:28N 49°14' W 000°18'0 0.0
2017-Dec-01 23:58N 49°14' W 000°18'0 0.0
2017-Dec-01 23:28N 49°14' W 000°18'0 0.0
2017-Dec-01 22:58N 49°14' W 000°18'0 0.0
2017-Dec-01 22:28N 49°14' W 000°18'0 0.0
2017-Dec-01 21:58N 49°14' W 000°18'0 0.0
2017-Dec-01 21:28N 49°14' W 000°18'0 0.0
2017-Dec-01 20:58N 49°14' W 000°18'0 0.0
2017-Dec-01 20:28N 49°14' W 000°18'0 0.0
2017-Dec-01 19:58N 49°14' W 000°18'0 0.0
2017-Dec-01 19:28N 49°14' W 000°18'0 0.0
2017-Dec-01 18:58N 49°14' W 000°18'0 0.0
2017-Dec-01 18:25N 49°14' W 000°18'0 0.0
2017-Dec-01 17:58N 49°14' W 000°18'0 0.0
2017-Dec-01 17:28N 49°14' W 000°18'0 0.0
2017-Dec-01 16:58N 49°14' W 000°18'0 0.0
2017-Dec-01 16:28N 49°14' W 000°18'0 0.0
2017-Dec-01 15:58N 49°14' W 000°18'0 0.0
2017-Dec-01 15:28N 49°14' W 000°18'0 0.0
2017-Dec-01 14:58N 49°14' W 000°18'0 0.0
2017-Dec-01 14:28N 49°14' W 000°18'0 0.0
2017-Dec-01 13:58N 49°14' W 000°18'0 0.0
2017-Dec-01 13:28N 49°14' W 000°18'0 0.0
2017-Dec-01 12:58N 49°14' W 000°18'0 0.0
2017-Dec-01 12:28N 49°14' W 000°18'0 0.0
2017-Dec-01 11:58N 49°14' W 000°18'0 0.0
2017-Dec-01 11:28N 49°14' W 000°18'0 0.0
2017-Dec-01 10:58N 49°14' W 000°18'0 0.0
2017-Dec-01 10:28N 49°14' W 000°18'0 0.0
2017-Dec-01 09:58N 49°14' W 000°18'0 0.0
2017-Dec-01 09:28N 49°14' W 000°18'0 0.0
2017-Dec-01 08:58N 49°14' W 000°18'0 0.0
2017-Dec-01 08:28N 49°14' W 000°18'0 0.0
2017-Dec-01 07:58N 49°14' W 000°18'0 0.0
2017-Dec-01 07:28N 49°14' W 000°18'0 0.0
2017-Dec-01 06:58N 49°14' W 000°18'0 0.0
2017-Dec-01 06:28N 49°14' W 000°18'0 0.0
2017-Dec-01 05:58N 49°14' W 000°18'0 0.0
2017-Dec-01 05:28N 49°14' W 000°18'0 0.0
2017-Dec-01 04:58N 49°14' W 000°18'0 0.0
2017-Dec-01 04:28N 49°14' W 000°18'0 0.0
2017-Dec-01 03:58N 49°14' W 000°18'0 0.0
2017-Dec-01 03:28N 49°14' W 000°18'0 0.0
2017-Dec-01 02:58N 49°14' W 000°18'0 0.0
2017-Dec-01 02:28N 49°14' W 000°18'0 0.0
2017-Dec-01 01:58N 49°14' W 000°18'0 0.0
2017-Dec-01 01:28N 49°14' W 000°18'0 0.0
2017-Dec-01 00:58N 49°14' W 000°18'0 0.0
2017-Dec-01 00:28N 49°14' W 000°18'0 0.0
2017-Nov-30 23:58N 49°14' W 000°18'0 0.0
2017-Nov-30 23:28N 49°14' W 000°18'0 0.0
2017-Nov-30 22:58N 49°14' W 000°18'0 0.0
2017-Nov-30 22:28N 49°14' W 000°18'0 0.0
2017-Nov-30 21:58N 49°14' W 000°18'0 0.0
2017-Nov-30 21:28N 49°14' W 000°18'0 0.0
2017-Nov-30 20:58N 49°14' W 000°18'0 0.0
2017-Nov-30 20:28N 49°14' W 000°18'0 0.0
2017-Nov-30 19:58N 49°14' W 000°18'0 0.0
2017-Nov-30 19:28N 49°14' W 000°18'0 0.0
2017-Nov-30 18:58N 49°14' W 000°18'0 0.0
2017-Nov-30 18:28N 49°14' W 000°18'0 0.0
2017-Nov-30 17:58N 49°14' W 000°18'0 0.0
2017-Nov-30 17:28N 49°14' W 000°18'0 0.0
2017-Nov-30 16:58N 49°14' W 000°18'0 0.0
2017-Nov-30 16:28N 49°14' W 000°18'0 0.0
2017-Nov-30 15:58N 49°14' W 000°18'0 0.0
2017-Nov-30 15:25N 49°14' W 000°18'0 0.0
2017-Nov-30 14:58N 49°14' W 000°18'0 0.0
2017-Nov-30 14:28N 49°14' W 000°18'0 0.0
2017-Nov-30 13:55N 49°14' W 000°18'0 0.0
2017-Nov-30 13:28N 49°14' W 000°18'0 0.0
2017-Nov-30 12:58N 49°14' W 000°18'0 0.0
2017-Nov-30 12:28N 49°14' W 000°18'0 0.0
2017-Nov-30 11:58N 49°14' W 000°18'0 0.0
2017-Nov-30 11:28N 49°14' W 000°18'0 0.0
2017-Nov-30 10:58N 49°14' W 000°18'0 0.0
2017-Nov-30 10:28N 49°14' W 000°18'0 0.0
2017-Nov-30 09:58N 49°14' W 000°18'0 0.0
2017-Nov-30 09:28N 49°14' W 000°18'0 0.0
2017-Nov-30 08:58N 49°14' W 000°18'0 0.0
2017-Nov-30 08:28N 49°14' W 000°18'0 0.0
2017-Nov-30 07:58N 49°14' W 000°18'0 0.0
2017-Nov-30 07:28N 49°14' W 000°18'0 0.0
2017-Nov-30 06:58N 49°14' W 000°18'0 0.0
2017-Nov-30 06:28N 49°14' W 000°18'0 0.0
2017-Nov-30 05:58N 49°14' W 000°18'0 0.0
2017-Nov-30 05:28N 49°14' W 000°18'0 0.0
2017-Nov-30 04:58N 49°14' W 000°18'0 0.0
2017-Nov-30 04:28N 49°14' W 000°18'0 0.0
2017-Nov-30 03:58N 49°14' W 000°18'0 0.0
2017-Nov-30 03:25N 49°14' W 000°18'0 0.0
2017-Nov-30 02:58N 49°14' W 000°18'0 0.0
2017-Nov-30 02:28N 49°14' W 000°18'0 0.0
2017-Nov-30 01:58N 49°14' W 000°18'0 0.0
2017-Nov-30 01:28N 49°14' W 000°18'0 0.0
2017-Nov-30 00:58N 49°14' W 000°18'0 0.0
2017-Nov-30 00:28N 49°14' W 000°18'0 0.0
2017-Nov-29 23:58N 49°14' W 000°18'0 0.0
2017-Nov-29 23:28N 49°14' W 000°18'0 0.0
2017-Nov-29 22:58N 49°14' W 000°18'0 0.0
2017-Nov-29 22:28N 49°14' W 000°18'0 0.0
2017-Nov-29 21:58N 49°14' W 000°18'0 0.0
2017-Nov-29 21:28N 49°14' W 000°18'0 0.0
2017-Nov-29 20:58N 49°14' W 000°18'0 0.0
2017-Nov-29 20:28N 49°14' W 000°18'0 0.0
2017-Nov-29 19:55N 49°14' W 000°18'0 0.0
2017-Nov-29 19:28N 49°14' W 000°18'0 0.0
2017-Nov-29 18:55N 49°14' W 000°18'0 0.0
2017-Nov-29 18:28N 49°14' W 000°18'0 0.0
2017-Nov-29 17:58N 49°14' W 000°18'0 0.0
2017-Nov-29 17:28N 49°14' W 000°18'0 0.0
2017-Nov-29 16:58N 49°14' W 000°18'0 0.0
2017-Nov-29 16:28N 49°14' W 000°18'0 0.0
2017-Nov-29 15:58N 49°14' W 000°18'0 0.0
2017-Nov-29 15:28N 49°14' W 000°18'0 0.0
2017-Nov-29 15:00N 49°14' W 000°18'0 0.0
2017-Nov-29 14:28N 49°14' W 000°18'0 0.0
2017-Nov-29 13:58N 49°14' W 000°18'0 0.0
2017-Nov-29 13:28N 49°14' W 000°18'0 0.0
2017-Nov-29 12:58N 49°14' W 000°18'0 0.0
2017-Nov-29 12:28N 49°14' W 000°18'0 0.0
2017-Nov-29 11:58N 49°14' W 000°18'0 0.0
2017-Nov-29 11:28N 49°14' W 000°18'0 0.0
2017-Nov-29 10:58N 49°14' W 000°18'0 0.0
2017-Nov-29 10:28N 49°14' W 000°18'0 0.0
2017-Nov-29 09:58N 49°14' W 000°18'0 0.0
2017-Nov-29 09:28N 49°14' W 000°18'0 0.0
2017-Nov-29 08:58N 49°14' W 000°18'0 0.0
2017-Nov-29 08:28N 49°14' W 000°18'0 0.0
2017-Nov-29 07:58N 49°14' W 000°18'0 0.0
2017-Nov-29 07:28N 49°14' W 000°18'0 0.0
2017-Nov-29 06:58N 49°14' W 000°18'0 0.0
2017-Nov-29 06:25N 49°14' W 000°18'0 0.0
2017-Nov-29 05:58N 49°14' W 000°18'0 0.0
2017-Nov-29 05:28N 49°14' W 000°18'0 0.0
2017-Nov-29 04:58N 49°14' W 000°18'0 0.0
2017-Nov-29 04:28N 49°14' W 000°18'0 0.0
2017-Nov-29 03:58N 49°14' W 000°18'0 0.0
2017-Nov-29 03:28N 49°14' W 000°18'0 0.0
2017-Nov-29 02:58N 49°14' W 000°18'0 0.0
2017-Nov-29 02:28N 49°14' W 000°18'0 0.0
2017-Nov-29 01:58N 49°14' W 000°18'0 0.0
2017-Nov-29 01:28N 49°14' W 000°18'0 0.0
2017-Nov-29 00:58N 49°14' W 000°18'0 0.0
2017-Nov-29 00:28N 49°14' W 000°18'0 0.0
2017-Nov-28 23:58N 49°14' W 000°18'0 0.0
2017-Nov-28 23:28N 49°14' W 000°18'0 0.0
2017-Nov-28 22:58N 49°14' W 000°18'0 0.0
2017-Nov-28 22:28N 49°14' W 000°18'0 0.0
2017-Nov-28 21:58N 49°14' W 000°18'0 0.0
2017-Nov-28 21:28N 49°14' W 000°18'0 0.0
2017-Nov-28 20:58N 49°14' W 000°18'0 0.0
2017-Nov-28 20:28N 49°14' W 000°18'0 0.0
2017-Nov-28 19:58N 49°14' W 000°18'0 0.0
2017-Nov-28 19:28N 49°14' W 000°18'0 0.0
2017-Nov-28 18:58N 49°14' W 000°18'0 0.0
2017-Nov-28 18:28N 49°14' W 000°18'0 0.0
2017-Nov-28 17:58N 49°14' W 000°18'0 0.0
2017-Nov-28 17:28N 49°14' W 000°18'0 0.0
2017-Nov-28 16:58N 49°14' W 000°18'0 0.0
2017-Nov-28 16:28N 49°14' W 000°18'0 0.0
2017-Nov-28 15:58N 49°14' W 000°18'0 0.0
2017-Nov-28 14:58N 49°14' W 000°18'0 0.0
2017-Nov-28 14:28N 49°14' W 000°18'0 0.0
2017-Nov-28 13:58N 49°14' W 000°18'0 0.0
2017-Nov-28 13:28N 49°14' W 000°18'0 0.0
2017-Nov-28 12:58N 49°14' W 000°18'0 0.0
2017-Nov-28 12:28N 49°14' W 000°18'0 0.0
2017-Nov-28 11:58N 49°14' W 000°18'0 0.0
2017-Nov-28 11:28N 49°14' W 000°18'0 0.0
2017-Nov-28 10:58N 49°14' W 000°18'0 0.0
2017-Nov-28 10:25N 49°14' W 000°18'0 0.0
2017-Nov-28 09:58N 49°14' W 000°18'0 0.0
2017-Nov-28 09:30N 49°14' W 000°18'0 0.3
2017-Nov-28 09:00N 49°13' W 000°18'3 5.5
2017-Nov-28 08:30N 49°16' W 000°15'1 2.4
2017-Nov-28 08:00N 49°17' W 000°15'0 0.9
2017-Nov-28 07:30N 49°17' W 000°15'4 7.1
2017-Nov-28 07:00N 49°20' W 000°12'0 0.9
2017-Nov-28 06:29N 49°20' W 000°11'0 0.1
2017-Nov-28 05:59N 49°20' W 000°11'0 0.1
2017-Nov-28 05:29N 49°20' W 000°11'0 0.0
2017-Nov-28 04:29N 49°20' W 000°11'0 0.0
2017-Nov-28 03:59N 49°20' W 000°11'0 0.0
2017-Nov-28 03:29N 49°20' W 000°11'0 0.1
2017-Nov-28 02:59N 49°20' W 000°11'0 0.1
2017-Nov-28 02:29N 49°20' W 000°11'0 0.0
2017-Nov-28 01:59N 49°20' W 000°11'0 0.0
2017-Nov-28 01:29N 49°20' W 000°11'0 0.0
2017-Nov-28 00:59N 49°20' W 000°11'0 0.0
2017-Nov-28 00:29N 49°20' W 000°11'0 0.0
2017-Nov-27 23:59N 49°20' W 000°11'0 0.1
2017-Nov-27 23:29N 49°20' W 000°11'0 0.0
2017-Nov-27 22:59N 49°20' W 000°11'0 0.0
2017-Nov-27 22:29N 49°20' W 000°11'0 0.0
2017-Nov-27 21:59N 49°20' W 000°11'0 0.1
2017-Nov-27 21:29N 49°20' W 000°11'0 0.0
2017-Nov-27 20:59N 49°20' W 000°11'0 0.2
2017-Nov-27 20:30N 49°20' W 000°11'2 4.0
2017-Nov-27 20:01N 49°22' W 000°11'4 7.5
2017-Nov-27 19:30N 49°26' W 000°12'510.0
2017-Nov-27 19:00N 49°29' W 000°19'611.6
2017-Nov-27 18:30N 49°31' W 000°27'611.9
2017-Nov-27 18:00N 49°34' W 000°35'612.0
2017-Nov-27 17:30N 49°36' W 000°43'612.2
2017-Nov-27 17:00N 49°39' W 000°52'612.6
2017-Nov-27 16:30N 49°43' W 001°00'713.1
2017-Nov-27 16:00N 49°46' W 001°09'1113.4
2017-Nov-27 15:12N 49°51' W 001°23'2114.3
2017-Nov-27 13:43N 49°52' W 001°56'813.9
2017-Nov-27 13:10N 49°53' W 002°08'613.5
2017-Nov-27 12:42N 49°54' W 002°18'513.7
2017-Nov-27 12:21N 49°53' W 002°25'1113.4
2017-Nov-27 11:32N 49°50' W 002°42'112.8
2017-Nov-27 11:27N 49°50' W 002°43'613.1
2017-Nov-27 11:00N 49°48' W 002°52'812.7
2017-Nov-27 10:20N 49°44' W 003°03'512.4
2017-Nov-27 09:58N 49°42' W 003°10'7112.2
2017-Nov-27 04:12N 49°07' W 004°44'312.0
2017-Nov-27 03:59N 49°05' W 004°47'1012.1
2017-Nov-27 03:08N 49°00' W 005°01'212.1
2017-Nov-27 02:58N 48°59' W 005°03'612.0
2017-Nov-27 02:30N 48°56' W 005°11'611.9
2017-Nov-27 02:00N 48°53' W 005°19'611.9
2017-Nov-27 01:30N 48°50' W 005°27'611.9
2017-Nov-27 00:59N 48°47' W 005°35'811.4
2017-Nov-27 00:17N 48°41' W 005°42'911.7
2017-Nov-26 23:32N 48°33' W 005°48'411.9
2017-Nov-26 23:11N 48°29' W 005°50'312.0
2017-Nov-26 22:58N 48°27' W 005°52'  
2017-Nov-24 18:44N 40°08' W 009°50'311.3
2017-Nov-24 18:30N 40°06' W 009°50'911.3
2017-Nov-24 17:44N 39°57' W 009°50'311.4
2017-Nov-24 17:30N 39°55' W 009°50'611.4
2017-Nov-24 17:00N 39°49' W 009°50'611.4
2017-Nov-24 16:30N 39°43' W 009°50'611.5
2017-Nov-24 16:00N 39°37' W 009°50'611.4
2017-Nov-24 15:30N 39°32' W 009°51'611.2
2017-Nov-24 15:00N 39°26' W 009°51'611.3
2017-Nov-24 14:30N 39°20' W 009°52'611.7
2017-Nov-24 14:00N 39°15' W 009°52'611.8
2017-Nov-24 13:30N 39°09' W 009°52'611.6
2017-Nov-24 13:00N 39°03' W 009°51'611.7
2017-Nov-24 12:30N 38°57' W 009°51'611.8
2017-Nov-24 12:00N 38°51' W 009°51'612.0
2017-Nov-24 11:30N 38°45' W 009°51'611.5
2017-Nov-24 11:00N 38°39' W 009°50'611.5
2017-Nov-24 10:30N 38°34' W 009°49'611.5
2017-Nov-24 10:00N 38°28' W 009°47'  
Track history (hours):
 
Tides and Currents Weather Stations Pressure Air Temp Water Temp Dewpoint Dewpoint Depression Visibility Wind Speed Wind Dir Waves Ship Positions

M/V Elma

Last reported at 2017-Dec-04 09:44 UTC. Time now 2017-Dec-12 15:57 UTC.
Position N 46°56' W 007°22'.
Warning: this ship's position is 8 days out of date.

Length 168 m; draft 9 m.

Type: Cargo ship. MMSI: 229691000.

Date/timePositionNaut miles runAvg speedWind from/ knotsBaromVisibWave heightAir tempDewpointWater temp
2017-Dec-04 09:44N 46°56' W 007°22'511.8
2017-Dec-04 09:20N 47°00' W 007°19'711.6
2017-Dec-04 08:42N 47°07' W 007°14'711.6
2017-Dec-04 08:07N 47°13' W 007°09'1611.6
2017-Dec-04 06:43N 47°27' W 006°58'611.9
2017-Dec-04 06:14N 47°32' W 006°54'312.2
2017-Dec-04 06:00N 47°35' W 006°52'912.1
2017-Dec-04 05:16N 47°43' W 006°45'1411.3
2017-Dec-04 04:01N 47°55' W 006°35'110.6
2017-Dec-04 03:53N 47°56' W 006°34'510.6
2017-Dec-04 03:27N 48°00' W 006°31'510.3
2017-Dec-04 03:00N 48°05' W 006°28'510.1
2017-Dec-04 02:30N 48°09' W 006°25'5 9.9
2017-Dec-04 01:57N 48°14' W 006°21'7611.6
2017-Dec-03 19:24N 49°13' W 005°08'6210.7
2017-Dec-03 13:37N 49°48' W 003°50'112.3
2017-Dec-03 13:30N 49°48' W 003°48'612.5
2017-Dec-03 13:00N 49°52' W 003°40'712.8
2017-Dec-03 12:30N 49°56' W 003°32'613.1
2017-Dec-03 12:01N 49°59' W 003°23'713.1
2017-Dec-03 11:30N 50°03' W 003°15'612.6
2017-Dec-03 11:00N 50°07' W 003°07'612.1
2017-Dec-03 10:31N 50°10' W 002°59'611.6
2017-Dec-03 10:00N 50°14' W 002°52'611.1
2017-Dec-03 09:30N 50°17' W 002°45'510.4
2017-Dec-03 09:00N 50°19' W 002°38'5 9.7
2017-Dec-03 08:30N 50°22' W 002°31'4 9.0
2017-Dec-03 08:00N 50°24' W 002°25'4 8.1
2017-Dec-03 07:28N 50°27' W 002°20'4 8.0
2017-Dec-03 06:59N 50°29' W 002°15'3 6.1
2017-Dec-03 06:28N 50°32' W 002°16'510.7
2017-Dec-03 06:01N 50°35' W 002°22'2 2.3
2017-Dec-03 05:19N 50°36' W 002°24'0 0.0
2017-Dec-03 04:55N 50°36' W 002°24'0 0.1
2017-Dec-03 04:25N 50°36' W 002°24'0 0.2
2017-Dec-03 03:49N 50°35' W 002°24'0 0.1
2017-Dec-03 03:28N 50°35' W 002°24'0 0.1
2017-Dec-03 02:58N 50°35' W 002°24'0 0.0
2017-Dec-03 02:28N 50°35' W 002°24'0 0.0
2017-Dec-03 01:58N 50°35' W 002°24'0 0.0
2017-Dec-03 01:19N 50°35' W 002°24'0 0.0
2017-Dec-03 00:55N 50°35' W 002°24'0 0.0
2017-Dec-03 00:28N 50°35' W 002°24'0 0.0
2017-Dec-02 23:55N 50°35' W 002°24'0 0.0
2017-Dec-02 23:25N 50°35' W 002°24'0 0.0
2017-Dec-02 22:58N 50°35' W 002°24'0 0.0
2017-Dec-02 22:25N 50°35' W 002°24'0 0.0
2017-Dec-02 22:00N 50°35' W 002°24'0 0.0
2017-Dec-02 21:30N 50°35' W 002°24'1 2.4
2017-Dec-02 20:59N 50°35' W 002°23'1 2.2
2017-Dec-02 20:31N 50°34' W 002°21'1 2.1
2017-Dec-02 20:01N 50°34' W 002°20'3 5.8
2017-Dec-02 19:30N 50°32' W 002°16'5 9.0
2017-Dec-02 18:59N 50°29' W 002°10'4 8.4
2017-Dec-02 18:30N 50°27' W 002°05'4 8.5
2017-Dec-02 18:00N 50°24' W 001°59'5 8.6
2017-Dec-02 17:28N 50°22' W 001°54'4 9.0
2017-Dec-02 17:01N 50°19' W 001°48'5 9.6
2017-Dec-02 16:31N 50°15' W 001°44'510.4
2017-Dec-02 16:00N 50°12' W 001°38'611.2
2017-Dec-02 15:30N 50°08' W 001°32'611.7
2017-Dec-02 15:01N 50°04' W 001°25'612.4
2017-Dec-02 14:30N 49°60' W 001°18'613.0
2017-Dec-02 14:01N 49°55' W 001°11'713.6
2017-Dec-02 13:30N 49°51' W 001°02'713.5
2017-Dec-02 13:00N 49°47' W 000°54'713.3
2017-Dec-02 12:30N 49°42' W 000°47'612.9
2017-Dec-02 12:00N 49°38' W 000°40'612.5
2017-Dec-02 11:30N 49°34' W 000°32'612.1
2017-Dec-02 11:00N 49°30' W 000°25'611.8
2017-Dec-02 10:30N 49°27' W 000°18'510.2
2017-Dec-02 10:00N 49°22' W 000°14'4 7.7
2017-Dec-02 09:30N 49°18' W 000°15'1 2.9
2017-Dec-02 09:00N 49°17' W 000°15'1 1.0
2017-Dec-02 08:30N 49°16' W 000°15'2 3.6
2017-Dec-02 08:00N 49°15' W 000°16'1 2.7
2017-Dec-02 07:28N 49°14' W 000°18'0 0.0
2017-Dec-02 06:58N 49°14' W 000°18'0 0.0
2017-Dec-02 06:28N 49°14' W 000°18'0 0.0
2017-Dec-02 05:58N 49°14' W 000°18'0 0.0
2017-Dec-02 05:28N 49°14' W 000°18'0 0.0
2017-Dec-02 04:58N 49°14' W 000°18'0 0.0
2017-Dec-02 04:28N 49°14' W 000°18'0 0.0
2017-Dec-02 03:58N 49°14' W 000°18'0 0.0
2017-Dec-02 03:28N 49°14' W 000°18'0 0.0
2017-Dec-02 02:58N 49°14' W 000°18'0 0.0
2017-Dec-02 02:28N 49°14' W 000°18'0 0.0
2017-Dec-02 01:58N 49°14' W 000°18'0 0.0
2017-Dec-02 01:28N 49°14' W 000°18'0 0.0
2017-Dec-02 00:58N 49°14' W 000°18'0 0.0
2017-Dec-02 00:28N 49°14' W 000°18'0 0.0
2017-Dec-01 23:58N 49°14' W 000°18'0 0.0
2017-Dec-01 23:28N 49°14' W 000°18'0 0.0
2017-Dec-01 22:58N 49°14' W 000°18'0 0.0
2017-Dec-01 22:28N 49°14' W 000°18'0 0.0
2017-Dec-01 21:58N 49°14' W 000°18'0 0.0
2017-Dec-01 21:28N 49°14' W 000°18'0 0.0
2017-Dec-01 20:58N 49°14' W 000°18'0 0.0
2017-Dec-01 20:28N 49°14' W 000°18'0 0.0
2017-Dec-01 19:58N 49°14' W 000°18'0 0.0
2017-Dec-01 19:28N 49°14' W 000°18'0 0.0
2017-Dec-01 18:58N 49°14' W 000°18'0 0.0
2017-Dec-01 18:25N 49°14' W 000°18'0 0.0
2017-Dec-01 17:58N 49°14' W 000°18'0 0.0
2017-Dec-01 17:28N 49°14' W 000°18'0 0.0
2017-Dec-01 16:58N 49°14' W 000°18'0 0.0
2017-Dec-01 16:28N 49°14' W 000°18'0 0.0
2017-Dec-01 15:58N 49°14' W 000°18'0 0.0
2017-Dec-01 15:28N 49°14' W 000°18'0 0.0
2017-Dec-01 14:58N 49°14' W 000°18'0 0.0
2017-Dec-01 14:28N 49°14' W 000°18'0 0.0
2017-Dec-01 13:58N 49°14' W 000°18'0 0.0
2017-Dec-01 13:28N 49°14' W 000°18'0 0.0
2017-Dec-01 12:58N 49°14' W 000°18'0 0.0
2017-Dec-01 12:28N 49°14' W 000°18'0 0.0
2017-Dec-01 11:58N 49°14' W 000°18'0 0.0
2017-Dec-01 11:28N 49°14' W 000°18'0 0.0
2017-Dec-01 10:58N 49°14' W 000°18'0 0.0
2017-Dec-01 10:28N 49°14' W 000°18'0 0.0
2017-Dec-01 09:58N 49°14' W 000°18'0 0.0
2017-Dec-01 09:28N 49°14' W 000°18'0 0.0
2017-Dec-01 08:58N 49°14' W 000°18'0 0.0
2017-Dec-01 08:28N 49°14' W 000°18'0 0.0
2017-Dec-01 07:58N 49°14' W 000°18'0 0.0
2017-Dec-01 07:28N 49°14' W 000°18'0 0.0
2017-Dec-01 06:58N 49°14' W 000°18'0 0.0
2017-Dec-01 06:28N 49°14' W 000°18'0 0.0
2017-Dec-01 05:58N 49°14' W 000°18'0 0.0
2017-Dec-01 05:28N 49°14' W 000°18'0 0.0
2017-Dec-01 04:58N 49°14' W 000°18'0 0.0
2017-Dec-01 04:28N 49°14' W 000°18'0 0.0
2017-Dec-01 03:58N 49°14' W 000°18'0 0.0
2017-Dec-01 03:28N 49°14' W 000°18'0 0.0
2017-Dec-01 02:58N 49°14' W 000°18'0 0.0
2017-Dec-01 02:28N 49°14' W 000°18'0 0.0
2017-Dec-01 01:58N 49°14' W 000°18'0 0.0
2017-Dec-01 01:28N 49°14' W 000°18'0 0.0
2017-Dec-01 00:58N 49°14' W 000°18'0 0.0
2017-Dec-01 00:28N 49°14' W 000°18'0 0.0
2017-Nov-30 23:58N 49°14' W 000°18'0 0.0
2017-Nov-30 23:28N 49°14' W 000°18'0 0.0
2017-Nov-30 22:58N 49°14' W 000°18'0 0.0
2017-Nov-30 22:28N 49°14' W 000°18'0 0.0
2017-Nov-30 21:58N 49°14' W 000°18'0 0.0
2017-Nov-30 21:28N 49°14' W 000°18'0 0.0
2017-Nov-30 20:58N 49°14' W 000°18'0 0.0
2017-Nov-30 20:28N 49°14' W 000°18'0 0.0
2017-Nov-30 19:58N 49°14' W 000°18'0 0.0
2017-Nov-30 19:28N 49°14' W 000°18'0 0.0
2017-Nov-30 18:58N 49°14' W 000°18'0 0.0
2017-Nov-30 18:28N 49°14' W 000°18'0 0.0
2017-Nov-30 17:58N 49°14' W 000°18'0 0.0
2017-Nov-30 17:28N 49°14' W 000°18'0 0.0
2017-Nov-30 16:58N 49°14' W 000°18'0 0.0
2017-Nov-30 16:28N 49°14' W 000°18'0 0.0
2017-Nov-30 15:58N 49°14' W 000°18'0 0.0
2017-Nov-30 15:25N 49°14' W 000°18'0 0.0
2017-Nov-30 14:58N 49°14' W 000°18'0 0.0
2017-Nov-30 14:28N 49°14' W 000°18'0 0.0
2017-Nov-30 13:55N 49°14' W 000°18'0 0.0
2017-Nov-30 13:28N 49°14' W 000°18'0 0.0
2017-Nov-30 12:58N 49°14' W 000°18'0 0.0
2017-Nov-30 12:28N 49°14' W 000°18'0 0.0
2017-Nov-30 11:58N 49°14' W 000°18'0 0.0
2017-Nov-30 11:28N 49°14' W 000°18'0 0.0
2017-Nov-30 10:58N 49°14' W 000°18'0 0.0
2017-Nov-30 10:28N 49°14' W 000°18'0 0.0
2017-Nov-30 09:58N 49°14' W 000°18'0 0.0
2017-Nov-30 09:28N 49°14' W 000°18'0 0.0
2017-Nov-30 08:58N 49°14' W 000°18'0 0.0
2017-Nov-30 08:28N 49°14' W 000°18'0 0.0
2017-Nov-30 07:58N 49°14' W 000°18'0 0.0
2017-Nov-30 07:28N 49°14' W 000°18'0 0.0
2017-Nov-30 06:58N 49°14' W 000°18'0 0.0
2017-Nov-30 06:28N 49°14' W 000°18'0 0.0
2017-Nov-30 05:58N 49°14' W 000°18'0 0.0
2017-Nov-30 05:28N 49°14' W 000°18'0 0.0
2017-Nov-30 04:58N 49°14' W 000°18'0 0.0
2017-Nov-30 04:28N 49°14' W 000°18'0 0.0
2017-Nov-30 03:58N 49°14' W 000°18'0 0.0
2017-Nov-30 03:25N 49°14' W 000°18'0 0.0
2017-Nov-30 02:58N 49°14' W 000°18'0 0.0
2017-Nov-30 02:28N 49°14' W 000°18'0 0.0
2017-Nov-30 01:58N 49°14' W 000°18'0 0.0
2017-Nov-30 01:28N 49°14' W 000°18'0 0.0
2017-Nov-30 00:58N 49°14' W 000°18'0 0.0
2017-Nov-30 00:28N 49°14' W 000°18'0 0.0
2017-Nov-29 23:58N 49°14' W 000°18'0 0.0
2017-Nov-29 23:28N 49°14' W 000°18'0 0.0
2017-Nov-29 22:58N 49°14' W 000°18'0 0.0
2017-Nov-29 22:28N 49°14' W 000°18'0 0.0
2017-Nov-29 21:58N 49°14' W 000°18'0 0.0
2017-Nov-29 21:28N 49°14' W 000°18'0 0.0
2017-Nov-29 20:58N 49°14' W 000°18'0 0.0
2017-Nov-29 20:28N 49°14' W 000°18'0 0.0
2017-Nov-29 19:55N 49°14' W 000°18'0 0.0
2017-Nov-29 19:28N 49°14' W 000°18'0 0.0
2017-Nov-29 18:55N 49°14' W 000°18'0 0.0
2017-Nov-29 18:28N 49°14' W 000°18'0 0.0
2017-Nov-29 17:58N 49°14' W 000°18'0 0.0
2017-Nov-29 17:28N 49°14' W 000°18'0 0.0
2017-Nov-29 16:58N 49°14' W 000°18'0 0.0
2017-Nov-29 16:28N 49°14' W 000°18'0 0.0
2017-Nov-29 15:58N 49°14' W 000°18'0 0.0
2017-Nov-29 15:28N 49°14' W 000°18'0 0.0
2017-Nov-29 15:00N 49°14' W 000°18'0 0.0
2017-Nov-29 14:28N 49°14' W 000°18'0 0.0
2017-Nov-29 13:58N 49°14' W 000°18'0 0.0
2017-Nov-29 13:28N 49°14' W 000°18'0 0.0
2017-Nov-29 12:58N 49°14' W 000°18'0 0.0
2017-Nov-29 12:28N 49°14' W 000°18'0 0.0
2017-Nov-29 11:58N 49°14' W 000°18'0 0.0
2017-Nov-29 11:28N 49°14' W 000°18'0 0.0
2017-Nov-29 10:58N 49°14' W 000°18'0 0.0
2017-Nov-29 10:28N 49°14' W 000°18'0 0.0
2017-Nov-29 09:58N 49°14' W 000°18'0 0.0
2017-Nov-29 09:28N 49°14' W 000°18'0 0.0
2017-Nov-29 08:58N 49°14' W 000°18'0 0.0
2017-Nov-29 08:28N 49°14' W 000°18'0 0.0
2017-Nov-29 07:58N 49°14' W 000°18'0 0.0
2017-Nov-29 07:28N 49°14' W 000°18'0 0.0
2017-Nov-29 06:58N 49°14' W 000°18'0 0.0
2017-Nov-29 06:25N 49°14' W 000°18'0 0.0
2017-Nov-29 05:58N 49°14' W 000°18'0 0.0
2017-Nov-29 05:28N 49°14' W 000°18'0 0.0
2017-Nov-29 04:58N 49°14' W 000°18'0 0.0
2017-Nov-29 04:28N 49°14' W 000°18'0 0.0
2017-Nov-29 03:58N 49°14' W 000°18'0 0.0
2017-Nov-29 03:28N 49°14' W 000°18'0 0.0
2017-Nov-29 02:58N 49°14' W 000°18'0 0.0
2017-Nov-29 02:28N 49°14' W 000°18'0 0.0
2017-Nov-29 01:58N 49°14' W 000°18'0 0.0
2017-Nov-29 01:28N 49°14' W 000°18'0 0.0
2017-Nov-29 00:58N 49°14' W 000°18'0 0.0
2017-Nov-29 00:28N 49°14' W 000°18'0 0.0
2017-Nov-28 23:58N 49°14' W 000°18'0 0.0
2017-Nov-28 23:28N 49°14' W 000°18'0 0.0
2017-Nov-28 22:58N 49°14' W 000°18'0 0.0
2017-Nov-28 22:28N 49°14' W 000°18'0 0.0
2017-Nov-28 21:58N 49°14' W 000°18'0 0.0
2017-Nov-28 21:28N 49°14' W 000°18'0 0.0
2017-Nov-28 20:58N 49°14' W 000°18'0 0.0
2017-Nov-28 20:28N 49°14' W 000°18'0 0.0
2017-Nov-28 19:58N 49°14' W 000°18'0 0.0
2017-Nov-28 19:28N 49°14' W 000°18'0 0.0
2017-Nov-28 18:58N 49°14' W 000°18'0 0.0
2017-Nov-28 18:28N 49°14' W 000°18'0 0.0
2017-Nov-28 17:58N 49°14' W 000°18'0 0.0
2017-Nov-28 17:28N 49°14' W 000°18'0 0.0
2017-Nov-28 16:58N 49°14' W 000°18'0 0.0
2017-Nov-28 16:28N 49°14' W 000°18'0 0.0
2017-Nov-28 15:58N 49°14' W 000°18'0 0.0
2017-Nov-28 14:58N 49°14' W 000°18'0 0.0
2017-Nov-28 14:28N 49°14' W 000°18'0 0.0
2017-Nov-28 13:58N 49°14' W 000°18'0 0.0
2017-Nov-28 13:28N 49°14' W 000°18'0 0.0
2017-Nov-28 12:58N 49°14' W 000°18'0 0.0
2017-Nov-28 12:28N 49°14' W 000°18'0 0.0
2017-Nov-28 11:58N 49°14' W 000°18'0 0.0
2017-Nov-28 11:28N 49°14' W 000°18'0 0.0
2017-Nov-28 10:58N 49°14' W 000°18'0 0.0
2017-Nov-28 10:25N 49°14' W 000°18'0 0.0
2017-Nov-28 09:58N 49°14' W 000°18'0 0.0
2017-Nov-28 09:30N 49°14' W 000°18'0 0.3
2017-Nov-28 09:00N 49°13' W 000°18'3 5.5
2017-Nov-28 08:30N 49°16' W 000°15'1 2.4
2017-Nov-28 08:00N 49°17' W 000°15'0 0.9
2017-Nov-28 07:30N 49°17' W 000°15'4 7.1
2017-Nov-28 07:00N 49°20' W 000°12'0 0.9
2017-Nov-28 06:29N 49°20' W 000°11'0 0.1
2017-Nov-28 05:59N 49°20' W 000°11'0 0.1
2017-Nov-28 05:29N 49°20' W 000°11'0 0.0
2017-Nov-28 04:29N 49°20' W 000°11'0 0.0
2017-Nov-28 03:59N 49°20' W 000°11'0 0.0
2017-Nov-28 03:29N 49°20' W 000°11'0 0.1
2017-Nov-28 02:59N 49°20' W 000°11'0 0.1
2017-Nov-28 02:29N 49°20' W 000°11'0 0.0
2017-Nov-28 01:59N 49°20' W 000°11'0 0.0
2017-Nov-28 01:29N 49°20' W 000°11'0 0.0
2017-Nov-28 00:59N 49°20' W 000°11'0 0.0
2017-Nov-28 00:29N 49°20' W 000°11'0 0.0
2017-Nov-27 23:59N 49°20' W 000°11'0 0.1
2017-Nov-27 23:29N 49°20' W 000°11'0 0.0
2017-Nov-27 22:59N 49°20' W 000°11'0 0.0
2017-Nov-27 22:29N 49°20' W 000°11'0 0.0
2017-Nov-27 21:59N 49°20' W 000°11'0 0.1
2017-Nov-27 21:29N 49°20' W 000°11'0 0.0
2017-Nov-27 20:59N 49°20' W 000°11'0 0.2
2017-Nov-27 20:30N 49°20' W 000°11'2 4.0
2017-Nov-27 20:01N 49°22' W 000°11'4 7.5
2017-Nov-27 19:30N 49°26' W 000°12'510.0
2017-Nov-27 19:00N 49°29' W 000°19'611.6
2017-Nov-27 18:30N 49°31' W 000°27'611.9
2017-Nov-27 18:00N 49°34' W 000°35'612.0
2017-Nov-27 17:30N 49°36' W 000°43'612.2
2017-Nov-27 17:00N 49°39' W 000°52'612.6
2017-Nov-27 16:30N 49°43' W 001°00'713.1
2017-Nov-27 16:00N 49°46' W 001°09'1113.4
2017-Nov-27 15:12N 49°51' W 001°23'2114.3
2017-Nov-27 13:43N 49°52' W 001°56'813.9
2017-Nov-27 13:10N 49°53' W 002°08'613.5
2017-Nov-27 12:42N 49°54' W 002°18'513.7
2017-Nov-27 12:21N 49°53' W 002°25'1113.4
2017-Nov-27 11:32N 49°50' W 002°42'112.8
2017-Nov-27 11:27N 49°50' W 002°43'613.1
2017-Nov-27 11:00N 49°48' W 002°52'812.7
2017-Nov-27 10:20N 49°44' W 003°03'512.4
2017-Nov-27 09:58N 49°42' W 003°10'7112.2
2017-Nov-27 04:12N 49°07' W 004°44'312.0
2017-Nov-27 03:59N 49°05' W 004°47'1012.1
2017-Nov-27 03:08N 49°00' W 005°01'212.1
2017-Nov-27 02:58N 48°59' W 005°03'612.0
2017-Nov-27 02:30N 48°56' W 005°11'611.9
2017-Nov-27 02:00N 48°53' W 005°19'611.9
2017-Nov-27 01:30N 48°50' W 005°27'611.9
2017-Nov-27 00:59N 48°47' W 005°35'811.4
2017-Nov-27 00:17N 48°41' W 005°42'911.7
2017-Nov-26 23:32N 48°33' W 005°48'411.9
2017-Nov-26 23:11N 48°29' W 005°50'312.0
2017-Nov-26 22:58N 48°27' W 005°52'  
2017-Nov-24 18:44N 40°08' W 009°50'311.3
2017-Nov-24 18:30N 40°06' W 009°50'911.3
2017-Nov-24 17:44N 39°57' W 009°50'311.4
2017-Nov-24 17:30N 39°55' W 009°50'611.4
2017-Nov-24 17:00N 39°49' W 009°50'611.4
2017-Nov-24 16:30N 39°43' W 009°50'611.5
2017-Nov-24 16:00N 39°37' W 009°50'611.4
2017-Nov-24 15:30N 39°32' W 009°51'611.2
2017-Nov-24 15:00N 39°26' W 009°51'611.3
2017-Nov-24 14:30N 39°20' W 009°52'611.7
2017-Nov-24 14:00N 39°15' W 009°52'611.8
2017-Nov-24 13:30N 39°09' W 009°52'611.6
2017-Nov-24 13:00N 39°03' W 009°51'611.7
2017-Nov-24 12:30N 38°57' W 009°51'611.8
2017-Nov-24 12:00N 38°51' W 009°51'612.0
2017-Nov-24 11:30N 38°45' W 009°51'611.5
2017-Nov-24 11:00N 38°39' W 009°50'611.5
2017-Nov-24 10:30N 38°34' W 009°49'611.5
2017-Nov-24 10:00N 38°28' W 009°47'  

Dump ship's entire track history